Flight Track Log - Related Links

Times and Time Zones

All times are in EDT time to prevent confusion due to time zone crossing. See the ASQ5428 flight status page for this flight to view local times or setup timezone preferences in your user account.

Time Position Orientation Groundspeed Altitude Reporting Facility
EDT Latitude Longitude Course Direction KTS MPH feet Rate Location/Type
Wed 07:55:24 AM 32.4314 -93.8175 106° East 171 197 1,100  Level Fort Worth Center
Wed 07:56:30 AM 32.4169 -93.7564 106° East 224 258 4,100 2,597 Climbing Fort Worth Center
Wed 07:57:38 AM 32.4692 -93.6831 50° Northeast 303 349 6,900 2,766 Climbing Fort Worth Center
Wed 07:58:38 AM 32.5297 -93.6092 46° Northeast 291 335 10,000 2,450 Climbing Fort Worth Center
Wed 07:59:38 AM 32.5919 -93.5350 45° Northeast 296 341 11,800 1,600 Climbing Fort Worth Center
Wed 08:00:38 AM 32.6606 -93.4531 45° Northeast 328 377 13,200 1,400 Climbing Fort Worth Center
Wed 08:01:38 AM 32.7308 -93.3683 45° Northeast 367 422 14,600 1,450 Climbing Fort Worth Center
Wed 08:02:38 AM 32.8092 -93.2783 44° Northeast 381 438 16,100 1,450 Climbing Fort Worth Center
Wed 08:03:38 AM 32.8875 -93.1833 46° Northeast 391 450 17,500 1,250 Climbing Fort Worth Center
Wed 08:04:38 AM 32.9678 -93.0903 44° Northeast 396 456 18,600 1,150 Climbing Fort Worth Center
Wed 08:05:38 AM 33.0478 -92.9922 46° Northeast 396 456 19,800 1,200 Climbing Fort Worth Center
Wed 08:06:38 AM 33.1319 -92.8939 44° Northeast 401 461 21,000 1,111 Climbing Fort Worth Center
Wed 08:08:20 AM 33.2739 -92.7128 47° Northeast 411 473 22,800 1,037 Climbing Memphis Center
Wed 08:09:20 AM 33.3492 -92.5931 53° Northeast 428 493 23,800 950 Climbing Memphis Center
Wed 08:10:20 AM 33.4181 -92.4728 56° Northeast 434 499 24,700 600 Climbing Memphis Center
Wed 08:11:20 AM 33.4869 -92.3497 56° Northeast 440 506 25,000 150 Climbing Memphis Center
Wed 08:12:20 AM 33.5619 -92.2244 54° Northeast 440 506 25,000  Level Memphis Center
Wed 08:13:20 AM 33.6328 -92.0961 56° Northeast 450 518 25,000 -250 Level Memphis Center
Wed 08:14:20 AM 33.7094 -91.9703 54° Northeast 458 527 24,500 -500 Descending Memphis Center
Wed 08:15:20 AM 33.7736 -91.8517 57° Northeast 453 521 24,000 -250 Descending Memphis Center
Wed 08:16:20 AM 33.8375 -91.7403 55° Northeast 430 495 24,000  Level Memphis Center
Wed 08:17:20 AM 33.9014 -91.6236 57° Northeast 410 472 24,000  Level Memphis Center
Wed 08:18:20 AM 33.9650 -91.5217 53° Northeast 410 472 24,000  Level Memphis Center
Wed 08:19:20 AM 34.0411 -91.4150 49° Northeast 416 479 24,000  Level Memphis Center
Wed 08:20:20 AM 34.1192 -91.3081 49° Northeast 423 487 24,000 -1,050 Level Memphis Center
Wed 08:21:20 AM 34.2056 -91.1961 47° Northeast 440 506 21,900 -2,250 Descending Memphis Center
Wed 08:22:20 AM 34.2833 -91.0811 51° Northeast 440 506 19,500 -2,250 Descending Memphis Center
Wed 08:23:20 AM 34.3611 -90.9736 49° Northeast 435 501 17,400 -2,200 Descending Memphis Center
Wed 08:24:20 AM 34.4367 -90.8683 49° Northeast 425 489 15,100 -2,250 Descending Memphis Center
Wed 08:25:20 AM 34.5164 -90.7553 49° Northeast 413 475 12,900 -2,200 Descending Memphis Center
Wed 08:26:20 AM 34.5878 -90.6547 49° Northeast 395 455 10,700 -1,500 Descending Memphis Center
Wed 08:27:20 AM 34.6336 -90.5564 60° Northeast 368 423 9,900 -950 Descending Memphis Center
Wed 08:28:20 AM 34.6589 -90.4733 70° East 289 333 8,800 -1,150 Descending Memphis Center
Wed 08:29:20 AM 34.6714 -90.3875 80° East 259 298 7,600 -1,100 Descending Memphis Center
Wed 08:30:20 AM 34.6819 -90.3067 81° East 244 281 6,600 -800 Descending Memphis Center
Wed 08:31:20 AM 34.6944 -90.2308 79° East 238 274 6,000 -300 Descending Memphis Center
Wed 08:32:20 AM 34.7047 -90.1550 81° East 233 268 6,000 -550 Level Memphis Center
Wed 08:33:20 AM 34.7150 -90.0767 81° East 233 268 4,900 -950 Descending Memphis Center
Wed 08:34:20 AM 34.7567 -90.0361 39° Northeast 206 237 4,100 -450 Descending Memphis Center
Wed 08:35:20 AM 34.8108 -90.0006 28° Northeast 211 243 4,000 -250 Descending Memphis Center
Wed 08:36:20 AM 34.8669 -89.9900 North 205 236 3,600 -800 Descending Memphis Center
Wed 08:37:20 AM 34.9192 -89.9872 North 192 221 2,400 -1,050 Descending Memphis Center
Wed 08:38:20 AM 34.9756 -89.9897 358° North 187 215 1,500 -900 Descending Memphis Center
Wed 08:39:20 AM 35.0150 -89.9894 360° North 161 185 600 -900 Descending Memphis Center
Wed 08:41:00 AM 35.0333 -89.9667 North  Level FlightAware Approximate
Wed 08:48:00 AM 35.0424 -89.9767 North  Level Estimated
Wed 08:49:00 AM 35.0424 -89.9767 North  Level Estimated
Wed 08:50:00 AM 35.0424 -89.9767 North  Level Estimated
Wed 08:51:00 AM 35.0424 -89.9767 North  Level Estimated
Wed 08:52:00 AM 35.0424 -89.9767 North  Level Estimated
Wed 08:53:00 AM 35.0424 -89.9767 North  Level Estimated
Wed 08:54:00 AM 35.0424 -89.9767 North  Level Estimated
Wed 08:55:00 AM 35.0424 -89.9767 North  Level Estimated
Wed 08:56:00 AM 35.0424 -89.9767 North  Level Estimated

Login

Don't have an account? Register now (free) for customized features, flight alerts, and more!